Time;durP1;ratioP1;P1;durP2;ratioP2;P2;SDS_P1;SDS_P2;PMS_P1;PMS_P2;Temp;Humidity;BMP_temperature;BMP_pressure;BME280_temperature;BME280_humidity;BME280_pressure;Samples;Min_cycle;Max_cycle;Signal;HPM_P1;HPM_P2
2021/07/08 00:01:37;;;;;;;;;5.33;2.00;;;;;;;;5052900;28;45868;-80
2021/07/08 00:04:02;;;;;;;;;4.75;3.00;;;;;;;;5054821;28;45697;-80
2021/07/08 00:06:28;;;;;;;;;2.00;2.00;;;;;;;;5052858;28;45240;-80
2021/07/08 00:08:53;;;;;;;;;4.00;4.00;;;;;;;;5053153;28;45429;-79
2021/07/08 00:11:18;;;;;;;;;2.67;2.67;;;;;;;;5053317;28;45857;-79
2021/07/08 00:13:46;;;;;;;;;4.33;3.00;;;;;;;;5048414;28;45475;-80
2021/07/08 00:16:12;;;;;;;;;4.50;4.00;;;;;;;;5053660;28;45715;-80
2021/07/08 00:18:37;;;;;;;;;4.00;3.00;;;;;;;;5051774;28;45675;-80
2021/07/08 00:21:02;;;;;;;;;2.00;2.00;;;;;;;;5051897;28;45398;-80
2021/07/08 00:23:27;;;;;;;;;3.00;3.00;;;;;;;;5050580;28;45729;-80
2021/07/08 00:25:53;;;;;;;;;4.00;3.00;;;;;;;;5054112;28;45582;-79
2021/07/08 00:28:19;;;;;;;;;4.50;3.00;;;;;;;;5062813;28;48080;-79
2021/07/08 00:30:45;;;;;;;;;3.25;2.75;;;;;;;;5051405;28;45477;-78
2021/07/08 00:33:11;;;;;;;;;5.25;3.50;;;;;;;;5050450;28;45557;-80
2021/07/08 00:35:37;;;;;;;;;3.25;3.00;;;;;;;;5048092;28;45539;-78
2021/07/08 00:38:02;;;;;;;;;3.75;2.50;;;;;;;;5054228;28;45465;-79
2021/07/08 00:40:28;;;;;;;;;4.75;4.25;;;;;;;;5053901;28;45557;-80
2021/07/08 00:42:53;;;;;;;;;5.00;3.75;;;;;;;;5050716;28;45533;-79
2021/07/08 00:45:19;;;;;;;;;4.67;4.00;;;;;;;;5054511;28;45448;-79
2021/07/08 00:47:44;;;;;;;;;4.25;4.25;;;;;;;;5052004;28;45651;-79
2021/07/08 00:50:11;;;;;;;;;2.75;2.75;;;;;;;;5052217;28;45561;-80
2021/07/08 00:52:37;;;;;;;;;3.00;3.00;;;;;;;;5055483;28;45294;-79
2021/07/08 00:55:02;;;;;;;;;7.75;4.00;;;;;;;;5052643;28;45528;-79
2021/07/08 00:57:28;;;;;;;;;4.25;3.25;;;;;;;;5068302;28;46999;-80
2021/07/08 00:59:54;;;;;;;;;6.00;3.00;;;;;;;;5053000;28;45421;-79
2021/07/08 01:02:20;;;;;;;;;4.00;3.00;;;;;;;;5051728;28;45477;-80
2021/07/08 01:04:46;;;;;;;;;5.00;3.00;;;;;;;;5053526;28;45583;-80
2021/07/08 01:07:12;;;;;;;;;3.00;3.00;;;;;;;;5051698;28;45505;-79
2021/07/08 01:09:37;;;;;;;;;3.50;3.00;;;;;;;;5053633;28;45656;-79
2021/07/08 01:12:03;;;;;;;;;4.00;4.00;;;;;;;;5052210;28;45438;-79
2021/07/08 01:14:28;;;;;;;;;4.75;3.00;;;;;;;;5052648;28;45401;-80
2021/07/08 01:16:53;;;;;;;;;4.00;2.33;;;;;;;;5051468;28;47196;-80
2021/07/08 01:19:18;;;;;;;;;5.00;3.00;;;;;;;;5052916;28;45525;-79
2021/07/08 01:21:44;;;;;;;;;4.00;4.00;;;;;;;;5053061;28;45490;-79
2021/07/08 01:24:09;;;;;;;;;4.67;3.00;;;;;;;;5050162;28;45552;-80
2021/07/08 01:26:37;;;;;;;;;3.00;3.00;;;;;;;;5051949;28;45410;-80
2021/07/08 01:29:03;;;;;;;;;5.75;4.00;;;;;;;;5051330;28;45976;-80
2021/07/08 01:31:28;;;;;;;;;5.00;5.00;;;;;;;;5059802;28;45866;-80
2021/07/08 01:33:53;;;;;;;;;3.67;2.33;;;;;;;;5051724;28;45479;-79
2021/07/08 01:36:18;;;;;;;;;5.50;3.25;;;;;;;;5052226;28;46032;-80
2021/07/08 01:38:44;;;;;;;;;5.33;3.33;;;;;;;;5052162;28;45748;-79
2021/07/08 01:41:09;;;;;;;;;5.75;4.75;;;;;;;;5061870;28;45410;-79
2021/07/08 01:43:39;;;;;;;;;5.00;4.00;;;;;;;;5065087;28;45580;-80
2021/07/08 01:46:05;;;;;;;;;6.00;4.00;;;;;;;;5052202;28;46014;-79
2021/07/08 01:48:30;;;;;;;;;5.00;3.00;;;;;;;;5050502;28;45527;-80
2021/07/08 01:50:55;;;;;;;;;4.00;4.00;;;;;;;;5052260;28;45365;-79
2021/07/08 01:53:20;;;;;;;;;3.00;3.00;;;;;;;;5050706;28;45512;-79
2021/07/08 01:55:45;;;;;;;;;5.00;3.33;;;;;;;;5051286;28;47606;-80
2021/07/08 01:58:11;;;;;;;;;2.33;2.33;;;;;;;;5050537;28;45577;-80
2021/07/08 02:00:36;;;;;;;;;3.33;3.33;;;;;;;;5049377;28;45678;-79
2021/07/08 02:03:01;;;;;;;;;3.00;3.00;;;;;;;;5051600;28;45349;-79
2021/07/08 02:05:26;;;;;;;;;3.00;3.00;;;;;;;;5049212;28;46328;-78
2021/07/08 02:07:52;;;;;;;;;3.00;3.00;;;;;;;;5051532;28;45578;-80
2021/07/08 02:10:18;;;;;;;;;6.00;3.75;;;;;;;;5053837;28;45461;-80
2021/07/08 02:12:44;;;;;;;;;4.75;3.75;;;;;;;;5050067;28;45510;-79
2021/07/08 02:15:10;;;;;;;;;6.00;3.00;;;;;;;;5050043;28;47303;-79
2021/07/08 02:17:35;;;;;;;;;6.25;3.75;;;;;;;;5049911;28;45841;-80
2021/07/08 02:20:01;;;;;;;;;5.00;3.25;;;;;;;;5050719;28;45497;-79
2021/07/08 02:22:26;;;;;;;;;6.50;3.75;;;;;;;;5055592;28;45509;-79
2021/07/08 02:24:52;;;;;;;;;4.67;4.67;;;;;;;;5051052;28;47403;-80
2021/07/08 02:27:17;;;;;;;;;4.00;4.00;;;;;;;;5050317;28;46554;-79
2021/07/08 02:29:42;;;;;;;;;4.00;4.00;;;;;;;;5051907;28;45429;-79
2021/07/08 02:32:08;;;;;;;;;3.75;3.25;;;;;;;;5051025;28;45566;-79
2021/07/08 02:34:36;;;;;;;;;4.50;4.50;;;;;;;;5052309;28;45598;-80
2021/07/08 02:37:01;;;;;;;;;4.25;3.00;;;;;;;;5051785;28;45858;-79
2021/07/08 02:39:26;;;;;;;;;4.25;3.00;;;;;;;;5053027;28;46056;-79
2021/07/08 02:41:52;;;;;;;;;5.00;4.00;;;;;;;;5053849;28;46216;-79
2021/07/08 02:44:17;;;;;;;;;5.00;3.33;;;;;;;;5051005;28;45634;-80
2021/07/08 02:46:42;;;;;;;;;2.67;2.67;;;;;;;;5059080;28;45323;-80
2021/07/08 02:49:07;;;;;;;;;4.00;3.00;;;;;;;;5059167;28;45408;-80
2021/07/08 02:51:32;;;;;;;;;4.00;3.67;;;;;;;;5056388;28;45479;-79
2021/07/08 02:53:58;;;;;;;;;4.00;3.00;;;;;;;;5059610;28;46193;-79
2021/07/08 02:56:23;;;;;;;;;4.67;3.33;;;;;;;;5051061;28;45939;-79
2021/07/08 02:58:48;;;;;;;;;4.00;3.00;;;;;;;;5050548;28;45420;-79
2021/07/08 03:01:14;;;;;;;;;4.00;4.00;;;;;;;;5055389;28;45486;-79
2021/07/08 03:03:39;;;;;;;;;5.00;3.50;;;;;;;;5065165;28;48407;-79
2021/07/08 03:06:04;;;;;;;;;3.33;3.00;;;;;;;;5053559;28;45762;-79
2021/07/08 03:08:29;;;;;;;;;3.00;3.00;;;;;;;;5055086;28;48903;-79
2021/07/08 03:10:54;;;;;;;;;8.33;3.00;;;;;;;;5054439;28;45540;-80
2021/07/08 03:13:20;;;;;;;;;4.50;3.50;;;;;;;;5055764;28;46475;-79
2021/07/08 03:15:45;;;;;;;;;4.50;3.75;;;;;;;;5053321;28;45561;-80
2021/07/08 03:18:10;;;;;;;;;3.33;3.33;;;;;;;;5054746;28;45485;-80
2021/07/08 03:20:35;;;;;;;;;4.33;3.33;;;;;;;;5053132;28;45573;-79
2021/07/08 03:23:04;;;;;;;;;6.00;4.50;;;;;;;;5053738;28;45711;-78
2021/07/08 03:25:30;;;;;;;;;4.25;3.00;;;;;;;;5056213;28;45486;-79
2021/07/08 03:27:55;;;;;;;;;8.50;4.00;;;;;;;;5055796;28;45419;-80
2021/07/08 03:30:21;;;;;;;;;6.00;3.00;;;;;;;;5053935;28;45439;-80
2021/07/08 03:32:48;;;;;;;;;5.00;3.00;;;;;;;;5053024;28;48520;-80
2021/07/08 03:35:14;;;;;;;;;3.50;3.50;;;;;;;;5054532;28;45936;-79
2021/07/08 03:37:39;;;;;;;;;4.50;4.50;;;;;;;;5054638;28;45507;-79
2021/07/08 03:40:06;;;;;;;;;4.00;4.00;;;;;;;;5054624;28;45659;-79
2021/07/08 03:42:31;;;;;;;;;4.25;4.25;;;;;;;;5053926;28;46465;-79
2021/07/08 03:44:56;;;;;;;;;6.25;3.50;;;;;;;;5054385;28;45485;-79
2021/07/08 03:47:21;;;;;;;;;4.33;4.00;;;;;;;;5052658;28;45690;-79
2021/07/08 03:49:47;;;;;;;;;4.00;4.00;;;;;;;;5054364;28;45366;-80
2021/07/08 03:52:12;;;;;;;;;5.00;4.00;;;;;;;;5055037;28;46066;-84
2021/07/08 03:54:37;;;;;;;;;3.67;3.67;;;;;;;;5053091;28;45442;-79
2021/07/08 03:57:03;;;;;;;;;3.25;3.00;;;;;;;;5052533;28;45717;-79
2021/07/08 03:59:28;;;;;;;;;3.00;3.00;;;;;;;;5053766;28;45423;-81
2021/07/08 04:01:53;;;;;;;;;5.00;4.00;;;;;;;;5054308;28;46045;-79
2021/07/08 04:04:19;;;;;;;;;4.25;3.25;;;;;;;;5054288;28;45526;-79
2021/07/08 04:06:44;;;;;;;;;5.33;4.00;;;;;;;;5052104;28;45498;-79
2021/07/08 04:09:09;;;;;;;;;4.00;4.00;;;;;;;;5053520;28;45554;-83
2021/07/08 04:11:35;;;;;;;;;6.50;4.50;;;;;;;;5053118;28;45583;-80
2021/07/08 04:14:00;;;;;;;;;5.75;4.00;;;;;;;;5053079;28;45502;-79
2021/07/08 04:16:25;;;;;;;;;3.00;3.00;;;;;;;;5054163;28;45500;-79
2021/07/08 04:18:50;;;;;;;;;4.00;3.67;;;;;;;;5056063;28;45467;-81
2021/07/08 04:21:16;;;;;;;;;8.00;5.00;;;;;;;;5058363;27;45996;-80
2021/07/08 04:23:41;;;;;;;;;6.00;4.33;;;;;;;;5063199;28;45504;-80
2021/07/08 04:26:06;;;;;;;;;5.00;5.00;;;;;;;;5055240;28;45470;-81
2021/07/08 04:28:31;;;;;;;;;9.00;5.00;;;;;;;;5037898;28;45266;-80
2021/07/08 04:30:57;;;;;;;;;5.25;3.75;;;;;;;;5038886;28;46306;-80
2021/07/08 04:33:22;;;;;;;;;6.00;4.00;;;;;;;;5043793;28;45441;-80
2021/07/08 04:35:47;;;;;;;;;6.00;4.67;;;;;;;;5050105;28;45512;-80
2021/07/08 04:38:13;;;;;;;;;4.75;4.75;;;;;;;;5054376;28;45768;-80
2021/07/08 04:40:39;;;;;;;;;3.00;3.00;;;;;;;;5064994;28;48272;-80
2021/07/08 04:43:05;;;;;;;;;4.50;3.50;;;;;;;;5060645;28;45405;-79
2021/07/08 04:45:30;;;;;;;;;5.75;5.25;;;;;;;;5056878;28;45411;-79
2021/07/08 04:47:56;;;;;;;;;6.00;3.00;;;;;;;;5051939;28;45389;-80
2021/07/08 04:50:22;;;;;;;;;5.00;5.00;;;;;;;;5062645;28;48118;-81
2021/07/08 04:52:48;;;;;;;;;4.75;4.75;;;;;;;;5065121;28;45339;-80
2021/07/08 04:55:14;;;;;;;;;8.25;4.25;;;;;;;;5057411;28;45731;-79
2021/07/08 04:57:39;;;;;;;;;5.75;4.00;;;;;;;;5054820;28;45480;-79
2021/07/08 05:00:06;;;;;;;;;6.75;4.00;;;;;;;;5053178;28;47694;-80
2021/07/08 05:02:31;;;;;;;;;4.00;4.00;;;;;;;;5054404;28;45769;-80
2021/07/08 05:04:56;;;;;;;;;5.33;3.33;;;;;;;;5063275;28;45513;-79
2021/07/08 05:07:21;;;;;;;;;6.00;3.33;;;;;;;;5053492;28;45608;-79
2021/07/08 05:09:47;;;;;;;;;6.00;6.00;;;;;;;;5054573;28;46086;-79
2021/07/08 05:12:12;;;;;;;;;3.75;3.75;;;;;;;;5048554;28;45451;-80
2021/07/08 05:14:37;;;;;;;;;6.67;4.33;;;;;;;;5062233;28;45616;-79
2021/07/08 05:17:03;;;;;;;;;5.00;5.00;;;;;;;;5063188;28;45296;-79
2021/07/08 05:19:29;;;;;;;;;5.25;5.25;;;;;;;;5077288;27;48544;-80
2021/07/08 05:21:55;;;;;;;;;5.75;5.75;;;;;;;;5057668;27;45466;-80
2021/07/08 05:24:25;;;;;;;;;4.00;4.00;;;;;;;;5056037;27;45484;-80
2021/07/08 05:26:50;;;;;;;;;5.00;5.00;;;;;;;;5049410;28;45537;-79
2021/07/08 05:29:16;;;;;;;;;5.75;4.00;;;;;;;;5060339;28;48312;-79
2021/07/08 05:31:41;;;;;;;;;7.00;4.75;;;;;;;;5052631;28;46109;-79
2021/07/08 05:34:07;;;;;;;;;5.00;5.00;;;;;;;;5060072;28;46014;-79
2021/07/08 05:36:32;;;;;;;;;3.50;3.50;;;;;;;;5054334;28;45616;-79
2021/07/08 05:38:57;;;;;;;;;6.25;4.75;;;;;;;;5050050;28;45469;-79
2021/07/08 05:41:23;;;;;;;;;4.67;4.00;;;;;;;;5052536;28;45874;-79
2021/07/08 05:43:48;;;;;;;;;6.67;4.00;;;;;;;;5051580;28;45461;-81
2021/07/08 05:46:13;;;;;;;;;6.00;4.00;;;;;;;;5054727;28;45402;-80
2021/07/08 05:48:38;;;;;;;;;4.00;4.00;;;;;;;;5054669;28;45958;-80
2021/07/08 05:51:04;;;;;;;;;4.00;3.00;;;;;;;;5059344;28;45319;-79
2021/07/08 05:53:29;;;;;;;;;4.00;4.00;;;;;;;;5050273;28;45502;-77
2021/07/08 05:55:54;;;;;;;;;7.00;5.00;;;;;;;;5052283;28;45631;-77
2021/07/08 05:58:19;;;;;;;;;6.00;3.00;;;;;;;;5052297;28;45565;-76
2021/07/08 06:00:47;;;;;;;;;5.33;4.00;;;;;;;;5048876;28;46563;-75
2021/07/08 06:03:12;;;;;;;;;5.00;4.50;;;;;;;;5042668;28;45379;-76
2021/07/08 06:05:38;;;;;;;;;6.75;5.75;;;;;;;;5049546;28;45475;-76
2021/07/08 06:08:03;;;;;;;;;4.00;4.00;;;;;;;;5051866;28;45446;-76
2021/07/08 06:10:28;;;;;;;;;5.67;4.67;;;;;;;;5052426;28;46108;-75
2021/07/08 06:12:53;;;;;;;;;6.00;4.33;;;;;;;;5051466;28;45486;-75
2021/07/08 06:15:20;;;;;;;;;5.00;4.00;;;;;;;;5052392;28;45450;-77
2021/07/08 06:17:45;;;;;;;;;5.00;5.00;;;;;;;;5050706;28;46064;-75
2021/07/08 06:20:11;;;;;;;;;5.00;4.00;;;;;;;;5053333;28;45515;-75
2021/07/08 06:22:36;;;;;;;;;5.50;5.00;;;;;;;;5056097;28;45443;-74
2021/07/08 06:25:03;;;;;;;;;5.00;5.00;;;;;;;;5053431;28;45608;-76
2021/07/08 06:27:28;;;;;;;;;5.00;5.00;;;;;;;;5052449;28;45366;-75
2021/07/08 06:29:53;;;;;;;;;7.33;5.00;;;;;;;;5053182;28;45502;-76
2021/07/08 06:32:19;;;;;;;;;6.00;5.67;;;;;;;;5062462;28;45779;-76
2021/07/08 06:34:44;;;;;;;;;4.00;4.00;;;;;;;;5053949;28;45442;-60
2021/07/08 06:37:10;;;;;;;;;4.25;4.25;;;;;;;;5054268;28;46378;-57
2021/07/08 06:39:35;;;;;;;;;3.50;3.50;;;;;;;;5055770;27;45535;-80
2021/07/08 06:42:00;;;;;;;;;10.00;5.75;;;;;;;;5051046;28;45425;-79
2021/07/08 06:44:26;;;;;;;;;6.00;6.00;;;;;;;;5054746;28;45734;-80
2021/07/08 06:46:53;;;;;;;;;9.25;6.00;;;;;;;;5050551;28;45766;-80
2021/07/08 06:49:18;;;;;;;;;7.25;4.50;;;;;;;;5060302;28;45335;-80
2021/07/08 06:51:43;;;;;;;;;6.33;5.33;;;;;;;;5055511;28;45363;-80
2021/07/08 06:54:08;;;;;;;;;6.00;5.67;;;;;;;;5055277;28;45620;-80
2021/07/08 06:56:34;;;;;;;;;5.67;4.00;;;;;;;;5059879;28;47508;-80
2021/07/08 06:58:59;;;;;;;;;5.67;4.67;;;;;;;;5054575;28;45489;-80
2021/07/08 07:01:24;;;;;;;;;5.00;5.00;;;;;;;;5060527;28;45450;-80
2021/07/08 07:03:49;;;;;;;;;4.50;4.50;;;;;;;;5053176;28;45555;-79
2021/07/08 07:06:15;;;;;;;;;9.00;4.67;;;;;;;;5055081;28;46169;-79
2021/07/08 07:08:40;;;;;;;;;7.00;7.00;;;;;;;;5053129;28;45454;-79
2021/07/08 07:11:05;;;;;;;;;6.25;6.00;;;;;;;;5051663;28;45401;-79
2021/07/08 07:13:30;;;;;;;;;6.00;5.00;;;;;;;;5063841;28;45286;-79
2021/07/08 07:15:56;;;;;;;;;5.00;5.00;;;;;;;;5056090;28;46605;-79
2021/07/08 07:18:21;;;;;;;;;10.33;6.67;;;;;;;;5055870;28;45681;-81
2021/07/08 07:20:46;;;;;;;;;9.33;5.67;;;;;;;;5054902;28;45550;-79
2021/07/08 07:23:11;;;;;;;;;9.33;6.67;;;;;;;;5054988;28;45560;-80
2021/07/08 07:25:40;;;;;;;;;6.00;6.00;;;;;;;;5052532;28;47174;-80
2021/07/08 07:28:07;;;;;;;;;6.75;6.75;;;;;;;;5052185;28;46125;-80
2021/07/08 07:30:32;;;;;;;;;2.25;2.25;;;;;;;;5050188;28;45573;-80
2021/07/08 07:32:57;;;;;;;;;4.25;4.25;;;;;;;;5049682;28;45448;-79
2021/07/08 07:35:23;;;;;;;;;6.00;4.00;;;;;;;;5047197;28;48165;-79
2021/07/08 07:37:51;;;;;;;;;6.00;5.00;;;;;;;;5047861;28;45592;-80
2021/07/08 07:40:17;;;;;;;;;6.25;5.50;;;;;;;;5050720;28;45395;-79
2021/07/08 07:42:43;;;;;;;;;7.75;4.50;;;;;;;;5053713;28;45463;-64
2021/07/08 07:45:08;;;;;;;;;4.75;4.75;;;;;;;;5056960;27;45367;-63
2021/07/08 07:47:34;;;;;;;;;5.25;5.25;;;;;;;;5063005;28;45427;-58
2021/07/08 07:50:00;;;;;;;;;9.00;5.25;;;;;;;;5060611;28;45457;-68
2021/07/08 07:52:25;;;;;;;;;6.00;4.25;;;;;;;;5057236;28;45486;-67
2021/07/08 07:54:50;;;;;;;;;4.25;4.25;;;;;;;;5051275;28;46015;-67
2021/07/08 07:57:16;;;;;;;;;5.67;5.00;;;;;;;;5052595;28;45459;-67
2021/07/08 07:59:41;;;;;;;;;4.75;4.25;;;;;;;;5063509;27;45459;-65
2021/07/08 08:02:10;;;;;;;;;5.00;4.67;;;;;;;;5064181;28;45296;-67
2021/07/08 08:04:42;;;;;;;;;4.00;3.50;;;;;;;;5064653;28;45661;-64
2021/07/08 08:09:51;;;;;;;;;4.00;4.00;;;;;;;;5056405;28;45640;-67
2021/07/08 08:12:17;;;;;;;;;5.67;4.00;;;;;;;;5053050;28;45664;-68
2021/07/08 08:14:42;;;;;;;;;4.75;3.25;;;;;;;;5063213;28;47105;-65
2021/07/08 08:17:07;;;;;;;;;4.67;4.67;;;;;;;;5062993;28;45431;-67
2021/07/08 08:19:32;;;;;;;;;4.67;4.00;;;;;;;;5043652;28;45782;-65
2021/07/08 08:21:57;;;;;;;;;5.00;5.00;;;;;;;;5053275;28;45339;-64
2021/07/08 08:24:23;;;;;;;;;5.33;5.00;;;;;;;;5050474;28;47291;-62
2021/07/08 08:26:51;;;;;;;;;4.00;4.00;;;;;;;;5062720;28;45392;-61
2021/07/08 08:29:17;;;;;;;;;5.25;5.00;;;;;;;;5055812;28;45663;-62
2021/07/08 08:31:42;;;;;;;;;4.75;4.00;;;;;;;;5063776;28;45391;-62
2021/07/08 08:34:08;;;;;;;;;4.75;4.75;;;;;;;;5061015;28;46047;-63
2021/07/08 08:36:33;;;;;;;;;4.00;4.00;;;;;;;;5057888;28;45319;-62
2021/07/08 08:38:58;;;;;;;;;6.75;5.75;;;;;;;;5056498;27;45393;-63
2021/07/08 08:41:23;;;;;;;;;5.67;5.67;;;;;;;;5056029;28;45730;-62
2021/07/08 08:43:49;;;;;;;;;6.00;4.25;;;;;;;;5037909;28;45599;-66
2021/07/08 08:46:14;;;;;;;;;6.00;6.00;;;;;;;;5042531;28;46739;-66
2021/07/08 08:48:39;;;;;;;;;5.00;4.25;;;;;;;;5047556;28;45410;-65
2021/07/08 08:51:06;;;;;;;;;6.67;4.00;;;;;;;;5044528;28;45332;-64
2021/07/08 08:53:31;;;;;;;;;4.25;4.25;;;;;;;;5048814;28;46152;-63
2021/07/08 08:55:57;;;;;;;;;4.25;4.00;;;;;;;;5050873;28;45495;-64
2021/07/08 08:58:22;;;;;;;;;6.00;5.67;;;;;;;;5050913;28;45498;-63
2021/07/08 09:00:50;;;;;;;;;7.00;4.00;;;;;;;;5050904;28;45367;-64
2021/07/08 09:03:25;;;;;;;;;6.75;5.75;;;;;;;;5051639;28;47010;-64
2021/07/08 09:05:56;;;;;;;;;5.50;4.00;;;;;;;;5056234;27;45857;-81
2021/07/08 09:08:22;;;;;;;;;5.75;5.75;;;;;;;;5053027;28;45544;-69
2021/07/08 09:11:02;;;;;;;;;5.00;5.00;;;;;;;;5054968;28;45256;-65
2021/07/08 09:13:46;;;;;;;;;3.50;3.50;;;;;;;;5064537;28;46077;-67
2021/07/08 09:16:12;;;;;;;;;3.25;3.25;;;;;;;;5062205;28;45303;-68
2021/07/08 09:18:37;;;;;;;;;4.75;3.25;;;;;;;;5058531;27;45465;-65
2021/07/08 09:21:13;;;;;;;;;7.00;4.33;;;;;;;;5049439;28;45864;-64
2021/07/08 09:23:39;;;;;;;;;3.00;3.00;;;;;;;;5047774;28;46537;-63
2021/07/08 09:26:10;;;;;;;;;3.00;3.00;;;;;;;;5051165;28;45587;-66
2021/07/08 09:28:36;;;;;;;;;3.00;3.00;;;;;;;;5055655;28;45555;-64
2021/07/08 09:31:04;;;;;;;;;3.00;3.00;;;;;;;;5041763;28;45657;-68
2021/07/08 09:33:30;;;;;;;;;3.50;3.50;;;;;;;;5046589;28;46108;-68
2021/07/08 09:36:12;;;;;;;;;3.75;2.50;;;;;;;;5050050;28;46133;-78
2021/07/08 09:38:38;;;;;;;;;5.75;3.25;;;;;;;;5051737;28;45413;-79
2021/07/08 09:41:07;;;;;;;;;4.50;3.00;;;;;;;;5062676;28;45471;-76
2021/07/08 09:43:33;;;;;;;;;3.75;3.75;;;;;;;;5050989;28;45374;-78
2021/07/08 09:45:59;;;;;;;;;5.00;3.00;;;;;;;;5058231;28;45454;-75
2021/07/08 09:48:24;;;;;;;;;5.25;4.00;;;;;;;;5057344;27;45302;-75
2021/07/08 09:50:50;;;;;;;;;3.33;3.33;;;;;;;;5061838;28;45455;-77
2021/07/08 09:53:20;;;;;;;;;4.00;3.00;;;;;;;;5061796;28;45232;-76
2021/07/08 09:58:30;;;;;;;;;4.00;4.00;;;;;;;;5059077;28;45417;-76
2021/07/08 10:00:56;;;;;;;;;4.75;3.00;;;;;;;;5056698;27;45639;-78
2021/07/08 10:03:21;;;;;;;;;5.00;3.25;;;;;;;;5054491;28;48210;-77
2021/07/08 10:05:46;;;;;;;;;4.00;4.00;;;;;;;;5046851;27;45593;-78
2021/07/08 10:08:12;;;;;;;;;3.00;3.00;;;;;;;;5049995;28;45526;-78
2021/07/08 10:10:38;;;;;;;;;3.00;3.00;;;;;;;;5050713;28;45520;-78
2021/07/08 10:13:05;;;;;;;;;4.50;4.50;;;;;;;;5042265;28;45769;-82
2021/07/08 10:15:33;;;;;;;;;4.00;3.00;;;;;;;;5040888;28;45449;-80
2021/07/08 10:17:59;;;;;;;;;3.00;3.00;;;;;;;;5048342;28;45433;-80
2021/07/08 10:20:25;;;;;;;;;5.25;5.25;;;;;;;;5049037;28;45959;-80
2021/07/08 10:22:51;;;;;;;;;3.00;2.25;;;;;;;;5049300;28;47066;-78
2021/07/08 10:25:16;;;;;;;;;5.75;4.00;;;;;;;;5051149;28;45469;-79
2021/07/08 10:27:43;;;;;;;;;4.00;4.00;;;;;;;;5051369;28;45315;-80
2021/07/08 10:30:09;;;;;;;;;6.00;3.75;;;;;;;;5050831;28;45631;-79
2021/07/08 10:32:34;;;;;;;;;4.25;4.25;;;;;;;;5048557;28;45917;-79
2021/07/08 10:35:00;;;;;;;;;7.50;4.00;;;;;;;;5051359;28;45520;-79
2021/07/08 10:37:25;;;;;;;;;4.75;4.00;;;;;;;;5062041;28;45315;-79
2021/07/08 10:39:51;;;;;;;;;4.25;4.25;;;;;;;;5056758;28;45474;-79
2021/07/08 10:42:36;;;;;;;;;4.25;3.75;;;;;;;;5056189;27;46445;-76
2021/07/08 10:45:02;;;;;;;;;8.25;4.00;;;;;;;;5031832;28;45693;-79
2021/07/08 10:47:30;;;;;;;;;4.50;4.50;;;;;;;;5047105;28;45750;-80
2021/07/08 10:49:55;;;;;;;;;4.25;4.25;;;;;;;;5050014;28;45473;-79
2021/07/08 10:52:56;;;;;;;;;7.00;4.00;;;;;;;;5053057;28;45423;-79
2021/07/08 10:55:41;;;;;;;;;4.00;4.00;;;;;;;;4984139;28;45748;-79
2021/07/08 10:58:07;;;;;;;;;5.00;4.00;;;;;;;;4990038;28;45612;-82
2021/07/08 11:00:43;;;;;;;;;11.50;9.00;;;;;;;;4989403;28;45485;-80
2021/07/08 11:03:28;;;;;;;;;7.25;6.25;;;;;;;;4988679;28;47328;-80
2021/07/08 11:05:55;;;;;;;;;12.00;10.25;;;;;;;;4982971;28;45757;-81
2021/07/08 11:08:39;;;;;;;;;4.00;4.00;;;;;;;;4990764;28;45419;-80
2021/07/08 11:11:04;;;;;;;;;3.00;3.00;;;;;;;;4988526;28;45585;-80
2021/07/08 11:13:29;;;;;;;;;4.00;4.00;;;;;;;;4990169;28;46190;-80
2021/07/08 11:15:55;;;;;;;;;6.00;6.00;;;;;;;;4971315;28;45549;-81
2021/07/08 11:18:31;;;;;;;;;4.33;3.67;;;;;;;;4987565;28;45487;-81
2021/07/08 11:20:56;;;;;;;;;5.50;5.50;;;;;;;;4989804;28;46055;-81
2021/07/08 11:23:42;;;;;;;;;6.25;4.50;;;;;;;;4991727;28;46026;-81
2021/07/08 11:26:09;;;;;;;;;4.00;4.00;;;;;;;;4989886;28;45596;-81
2021/07/08 11:28:35;;;;;;;;;6.50;5.00;;;;;;;;5002939;28;45500;-81
2021/07/08 11:31:04;;;;;;;;;3.00;3.00;;;;;;;;5052106;28;45418;-82
2021/07/08 11:33:32;;;;;;;;;5.25;5.25;;;;;;;;5048828;28;45470;-82
2021/07/08 11:36:00;;;;;;;;;3.25;3.25;;;;;;;;5051566;28;45515;-81
2021/07/08 11:38:29;;;;;;;;;4.00;4.00;;;;;;;;5053063;28;45488;-82
2021/07/08 11:40:55;;;;;;;;;4.75;4.75;;;;;;;;5053124;28;45489;-82
2021/07/08 11:43:28;;;;;;;;;4.00;3.25;;;;;;;;5054410;28;45496;-81
2021/07/08 11:45:54;;;;;;;;;4.00;4.00;;;;;;;;5050584;28;45470;-80
2021/07/08 11:48:24;;;;;;;;;5.75;4.00;;;;;;;;5051291;28;45556;-82
2021/07/08 11:50:51;;;;;;;;;5.25;4.00;;;;;;;;5049216;28;45300;-80
2021/07/08 11:53:17;;;;;;;;;3.00;3.00;;;;;;;;5050485;28;46011;-80
2021/07/08 11:55:44;;;;;;;;;4.00;4.00;;;;;;;;5052500;28;45835;-78
2021/07/08 11:58:10;;;;;;;;;4.75;3.25;;;;;;;;5053903;28;45523;-83
2021/07/08 12:00:40;;;;;;;;;8.00;4.00;;;;;;;;5053160;28;45557;-79
2021/07/08 12:03:17;;;;;;;;;5.25;3.25;;;;;;;;5049720;28;45953;-80
2021/07/08 12:05:42;;;;;;;;;5.25;5.25;;;;;;;;5053083;28;45582;-80
2021/07/08 12:08:07;;;;;;;;;4.25;4.25;;;;;;;;5052524;28;45653;-80
2021/07/08 12:10:34;;;;;;;;;4.00;3.67;;;;;;;;5045461;28;45489;-78
2021/07/08 12:13:01;;;;;;;;;3.75;3.75;;;;;;;;5051728;28;46078;-78
2021/07/08 12:15:27;;;;;;;;;4.00;4.00;;;;;;;;5049582;28;45787;-79
2021/07/08 12:17:53;;;;;;;;;4.50;4.50;;;;;;;;5051087;28;45584;-79
2021/07/08 12:20:18;;;;;;;;;5.25;4.00;;;;;;;;5049843;28;46315;-79
2021/07/08 12:22:55;;;;;;;;;3.25;3.00;;;;;;;;5050170;28;48398;-77
2021/07/08 12:25:21;;;;;;;;;6.00;4.00;;;;;;;;5052962;28;45450;-79
2021/07/08 12:27:46;;;;;;;;;5.50;4.75;;;;;;;;5051714;28;45402;-78
2021/07/08 12:30:15;;;;;;;;;4.00;3.50;;;;;;;;5050558;28;45296;-76
2021/07/08 12:32:40;;;;;;;;;3.75;3.75;;;;;;;;5049464;28;45569;-76
2021/07/08 12:35:06;;;;;;;;;4.67;3.00;;;;;;;;5050020;28;45895;-78
2021/07/08 12:37:34;;;;;;;;;3.50;3.50;;;;;;;;5049841;28;45516;-76
2021/07/08 12:40:03;;;;;;;;;4.75;4.75;;;;;;;;5051995;28;45810;-83
2021/07/08 12:42:30;;;;;;;;;4.75;4.00;;;;;;;;5053304;28;45405;-80
2021/07/08 12:44:59;;;;;;;;;2.25;2.00;;;;;;;;5052591;28;45301;-81
2021/07/08 12:47:25;;;;;;;;;4.50;3.75;;;;;;;;5052921;28;45265;-80
2021/07/08 12:49:53;;;;;;;;;4.25;4.25;;;;;;;;5053885;28;45573;-86
2021/07/08 12:52:19;;;;;;;;;3.00;3.00;;;;;;;;5062334;28;46124;-78
2021/07/08 12:54:45;;;;;;;;;4.00;4.00;;;;;;;;5052173;28;46027;-77
2021/07/08 12:57:13;;;;;;;;;7.00;4.00;;;;;;;;5043163;28;46113;-78
2021/07/08 12:59:38;;;;;;;;;4.00;4.00;;;;;;;;5052388;28;45648;-77
2021/07/08 13:02:05;;;;;;;;;4.00;4.00;;;;;;;;5052930;28;45970;-78
2021/07/08 13:04:34;;;;;;;;;4.00;4.00;;;;;;;;5056994;28;45752;-76
2021/07/08 13:07:03;;;;;;;;;3.25;3.25;;;;;;;;5051414;28;46058;-77
2021/07/08 13:09:32;;;;;;;;;3.00;3.00;;;;;;;;5054804;28;45576;-78
2021/07/08 13:12:15;;;;;;;;;3.25;3.25;;;;;;;;5048530;28;46057;-79
2021/07/08 13:14:40;;;;;;;;;5.00;3.00;;;;;;;;5049582;28;45942;-80
2021/07/08 13:17:11;;;;;;;;;2.25;2.25;;;;;;;;5050609;28;45439;-79
2021/07/08 13:19:41;;;;;;;;;3.00;3.00;;;;;;;;5061875;28;45459;-79
2021/07/08 13:22:11;;;;;;;;;3.50;3.00;;;;;;;;5061616;27;47719;-78
2021/07/08 13:24:36;;;;;;;;;5.50;5.50;;;;;;;;5051272;28;45619;-79
2021/07/08 13:27:01;;;;;;;;;5.00;5.00;;;;;;;;5052264;28;45673;-77
2021/07/08 13:29:26;;;;;;;;;3.67;3.67;;;;;;;;5055035;28;45437;-78
2021/07/08 13:31:52;;;;;;;;;3.33;3.33;;;;;;;;5060793;28;45418;-81
2021/07/08 13:34:24;;;;;;;;;3.75;3.00;;;;;;;;5060245;28;45465;-79
2021/07/08 13:36:49;;;;;;;;;2.25;2.25;;;;;;;;5054829;28;45480;-77
2021/07/08 13:39:15;;;;;;;;;3.25;2.00;;;;;;;;5058248;27;45548;-78
2021/07/08 13:41:44;;;;;;;;;4.00;4.00;;;;;;;;5055600;28;47133;-82
2021/07/08 13:44:13;;;;;;;;;3.75;3.75;;;;;;;;5055561;28;45724;-82
2021/07/08 13:46:43;;;;;;;;;3.50;2.00;;;;;;;;5055244;28;45489;-90
2021/07/08 13:49:12;;;;;;;;;4.00;2.50;;;;;;;;5052260;28;45351;-81
2021/07/08 13:51:44;;;;;;;;;3.00;3.00;;;;;;;;5050331;28;46182;-81
2021/07/08 13:54:10;;;;;;;;;4.75;3.50;;;;;;;;5054969;27;45702;-80
2021/07/08 13:56:35;;;;;;;;;2.33;2.00;;;;;;;;5048203;28;45438;-80
2021/07/08 13:59:03;;;;;;;;;3.00;1.75;;;;;;;;5046290;28;45608;-80
2021/07/08 14:01:28;;;;;;;;;4.00;2.00;;;;;;;;5049968;28;47424;-81
2021/07/08 14:03:53;;;;;;;;;5.00;4.00;;;;;;;;5049979;28;45322;-80
2021/07/08 14:06:18;;;;;;;;;5.33;3.00;;;;;;;;5050979;28;45661;-90
2021/07/08 14:08:44;;;;;;;;;3.50;2.75;;;;;;;;5049575;28;45762;-82
2021/07/08 14:11:10;;;;;;;;;4.00;3.00;;;;;;;;5050783;28;46081;-83
2021/07/08 14:13:35;;;;;;;;;3.00;3.00;;;;;;;;5053018;28;45887;-81
2021/07/08 14:16:01;;;;;;;;;2.75;2.75;;;;;;;;5049615;28;45541;-80
2021/07/08 14:18:26;;;;;;;;;1.25;1.25;;;;;;;;5046072;28;45660;-79
2021/07/08 14:20:52;;;;;;;;;3.00;3.00;;;;;;;;5051013;28;47222;-78
2021/07/08 14:23:18;;;;;;;;;4.00;3.00;;;;;;;;5049163;28;45770;-81
2021/07/08 14:25:43;;;;;;;;;4.50;4.00;;;;;;;;5051775;28;45674;-80
2021/07/08 14:28:09;;;;;;;;;4.25;3.25;;;;;;;;5051510;28;45398;-81
2021/07/08 14:30:34;;;;;;;;;3.00;3.00;;;;;;;;5051593;28;46226;-80
2021/07/08 14:33:01;;;;;;;;;3.33;3.33;;;;;;;;5048923;28;45423;-80
2021/07/08 14:35:27;;;;;;;;;2.25;2.25;;;;;;;;5050185;28;45517;-80
2021/07/08 14:37:52;;;;;;;;;3.50;3.50;;;;;;;;5042188;28;45746;-80
2021/07/08 14:40:18;;;;;;;;;3.00;3.00;;;;;;;;5048360;28;45534;-79
2021/07/08 14:42:52;;;;;;;;;4.50;4.00;;;;;;;;5050303;28;51238;-80
2021/07/08 14:45:18;;;;;;;;;4.50;4.00;;;;;;;;5051005;28;45522;-82